sensor_id;sensor_type;location;lat;lon;timestamp;P1;durP1;ratioP1;P2;durP2;ratioP2
53833;SDS011;39735;51.432;5.482;2023-08-24T00:03:21;14.77;;;4.18;;
53833;SDS011;39735;51.432;5.482;2023-08-24T00:06:45;11.15;;;4.80;;
53833;SDS011;39735;51.432;5.482;2023-08-24T00:10:09;9.13;;;4.38;;
53833;SDS011;39735;51.432;5.482;2023-08-24T00:13:33;26.80;;;7.55;;
53833;SDS011;39735;51.432;5.482;2023-08-24T00:16:57;3.75;;;3.42;;
53833;SDS011;39735;51.432;5.482;2023-08-24T00:20:21;16.90;;;4.63;;
53833;SDS011;39735;51.432;5.482;2023-08-24T00:23:48;10.93;;;4.25;;
53833;SDS011;39735;51.432;5.482;2023-08-24T00:27:12;15.70;;;4.28;;
53833;SDS011;39735;51.432;5.482;2023-08-24T00:30:36;13.57;;;4.65;;
53833;SDS011;39735;51.432;5.482;2023-08-24T00:34:00;23.05;;;5.22;;
53833;SDS011;39735;51.432;5.482;2023-08-24T00:37:24;9.05;;;4.80;;
53833;SDS011;39735;51.432;5.482;2023-08-24T00:40:48;22.15;;;4.32;;
53833;SDS011;39735;51.432;5.482;2023-08-24T00:44:11;18.67;;;4.85;;
53833;SDS011;39735;51.432;5.482;2023-08-24T00:47:36;5.57;;;3.75;;
53833;SDS011;39735;51.432;5.482;2023-08-24T00:51:00;9.18;;;4.38;;
53833;SDS011;39735;51.432;5.482;2023-08-24T00:54:25;14.25;;;4.18;;
53833;SDS011;39735;51.432;5.482;2023-08-24T00:57:49;9.07;;;4.30;;
53833;SDS011;39735;51.432;5.482;2023-08-24T01:01:13;7.60;;;4.30;;
53833;SDS011;39735;51.432;5.482;2023-08-24T01:04:37;15.38;;;5.38;;
53833;SDS011;39735;51.432;5.482;2023-08-24T01:08:01;18.27;;;5.22;;
53833;SDS011;39735;51.432;5.482;2023-08-24T01:15:07;10.82;;;4.40;;
53833;SDS011;39735;51.432;5.482;2023-08-24T01:18:43;18.50;;;5.05;;
53833;SDS011;39735;51.432;5.482;2023-08-24T01:22:32;9.23;;;4.75;;
53833;SDS011;39735;51.432;5.482;2023-08-24T01:26:22;18.73;;;8.48;;
53833;SDS011;39735;51.432;5.482;2023-08-24T01:29:46;3.97;;;3.13;;
53833;SDS011;39735;51.432;5.482;2023-08-24T01:33:10;12.52;;;4.88;;
53833;SDS011;39735;51.432;5.482;2023-08-24T01:36:33;13.73;;;4.72;;
53833;SDS011;39735;51.432;5.482;2023-08-24T01:43:38;8.57;;;4.30;;
53833;SDS011;39735;51.432;5.482;2023-08-24T01:47:03;6.10;;;5.43;;
53833;SDS011;39735;51.432;5.482;2023-08-24T01:50:29;13.60;;;6.68;;
53833;SDS011;39735;51.432;5.482;2023-08-24T01:53:53;7.05;;;5.00;;
53833;SDS011;39735;51.432;5.482;2023-08-24T01:56:20;15.02;;;5.90;;
53833;SDS011;39735;51.432;5.482;2023-08-24T01:59:03;14.18;;;6.28;;
53833;SDS011;39735;51.432;5.482;2023-08-24T02:01:54;12.68;;;5.32;;
53833;SDS011;39735;51.432;5.482;2023-08-24T02:05:17;10.27;;;5.72;;
53833;SDS011;39735;51.432;5.482;2023-08-24T02:07:45;14.60;;;6.22;;
53833;SDS011;39735;51.432;5.482;2023-08-24T02:10:54;19.77;;;7.30;;
53833;SDS011;39735;51.432;5.482;2023-08-24T02:14:18;10.73;;;5.70;;
53833;SDS011;39735;51.432;5.482;2023-08-24T02:17:42;10.68;;;5.90;;
53833;SDS011;39735;51.432;5.482;2023-08-24T02:20:26;6.72;;;5.93;;
53833;SDS011;39735;51.432;5.482;2023-08-24T02:23:42;24.45;;;5.70;;
53833;SDS011;39735;51.432;5.482;2023-08-24T02:27:05;21.02;;;7.10;;
53833;SDS011;39735;51.432;5.482;2023-08-24T02:30:29;9.00;;;7.07;;
53833;SDS011;39735;51.432;5.482;2023-08-24T02:33:53;11.70;;;5.93;;
53833;SDS011;39735;51.432;5.482;2023-08-24T02:37:06;27.08;;;7.40;;
53833;SDS011;39735;51.432;5.482;2023-08-24T02:40:30;18.17;;;6.30;;
53833;SDS011;39735;51.432;5.482;2023-08-24T02:43:54;26.55;;;8.90;;
53833;SDS011;39735;51.432;5.482;2023-08-24T02:47:18;22.92;;;7.22;;
53833;SDS011;39735;51.432;5.482;2023-08-24T02:50:45;6.80;;;6.18;;
53833;SDS011;39735;51.432;5.482;2023-08-24T02:54:09;13.10;;;8.13;;
53833;SDS011;39735;51.432;5.482;2023-08-24T02:57:34;18.23;;;8.02;;
53833;SDS011;39735;51.432;5.482;2023-08-24T03:00:57;23.08;;;7.30;;
53833;SDS011;39735;51.432;5.482;2023-08-24T03:04:22;21.90;;;8.85;;
53833;SDS011;39735;51.432;5.482;2023-08-24T03:07:46;16.85;;;7.53;;
53833;SDS011;39735;51.432;5.482;2023-08-24T03:11:10;14.65;;;9.95;;
53833;SDS011;39735;51.432;5.482;2023-08-24T03:14:34;10.10;;;6.88;;
53833;SDS011;39735;51.432;5.482;2023-08-24T03:17:57;13.32;;;8.13;;
53833;SDS011;39735;51.432;5.482;2023-08-24T03:21:21;9.02;;;7.75;;
53833;SDS011;39735;51.432;5.482;2023-08-24T03:24:45;18.20;;;10.45;;
53833;SDS011;39735;51.432;5.482;2023-08-24T03:28:09;30.15;;;9.15;;
53833;SDS011;39735;51.432;5.482;2023-08-24T03:31:33;18.02;;;8.85;;
53833;SDS011;39735;51.432;5.482;2023-08-24T03:35:00;19.27;;;7.60;;
53833;SDS011;39735;51.432;5.482;2023-08-24T03:38:24;18.35;;;7.53;;
53833;SDS011;39735;51.432;5.482;2023-08-24T03:41:48;15.75;;;8.70;;
53833;SDS011;39735;51.432;5.482;2023-08-24T03:45:12;19.23;;;10.02;;
53833;SDS011;39735;51.432;5.482;2023-08-24T03:48:36;22.02;;;9.05;;
53833;SDS011;39735;51.432;5.482;2023-08-24T03:52:00;26.90;;;10.10;;
53833;SDS011;39735;51.432;5.482;2023-08-24T03:55:24;21.42;;;11.88;;
53833;SDS011;39735;51.432;5.482;2023-08-24T03:58:47;16.48;;;10.75;;
53833;SDS011;39735;51.432;5.482;2023-08-24T04:02:11;38.78;;;12.48;;
53833;SDS011;39735;51.432;5.482;2023-08-24T04:05:36;18.52;;;10.80;;
53833;SDS011;39735;51.432;5.482;2023-08-24T04:09:00;25.30;;;11.02;;
53833;SDS011;39735;51.432;5.482;2023-08-24T04:12:24;28.52;;;11.50;;
53833;SDS011;39735;51.432;5.482;2023-08-24T04:15:48;27.17;;;11.45;;
53833;SDS011;39735;51.432;5.482;2023-08-24T04:19:12;17.88;;;12.50;;
53833;SDS011;39735;51.432;5.482;2023-08-24T04:22:36;19.83;;;12.73;;
53833;SDS011;39735;51.432;5.482;2023-08-24T04:26:00;26.23;;;13.45;;
53833;SDS011;39735;51.432;5.482;2023-08-24T04:29:24;21.83;;;12.30;;
53833;SDS011;39735;51.432;5.482;2023-08-24T04:32:48;24.42;;;12.35;;
53833;SDS011;39735;51.432;5.482;2023-08-24T04:36:12;16.95;;;12.27;;
53833;SDS011;39735;51.432;5.482;2023-08-24T04:39:36;29.60;;;13.52;;
53833;SDS011;39735;51.432;5.482;2023-08-24T04:43:32;28.52;;;12.43;;
53833;SDS011;39735;51.432;5.482;2023-08-24T04:46:56;20.95;;;14.30;;
53833;SDS011;39735;51.432;5.482;2023-08-24T04:50:20;22.73;;;13.68;;
53833;SDS011;39735;51.432;5.482;2023-08-24T04:53:44;28.52;;;13.70;;
53833;SDS011;39735;51.432;5.482;2023-08-24T04:57:08;28.83;;;14.05;;
53833;SDS011;39735;51.432;5.482;2023-08-24T05:00:32;26.25;;;15.50;;
53833;SDS011;39735;51.432;5.482;2023-08-24T05:03:59;27.33;;;14.48;;
53833;SDS011;39735;51.432;5.482;2023-08-24T05:07:23;26.98;;;14.43;;
53833;SDS011;39735;51.432;5.482;2023-08-24T05:10:47;15.23;;;12.48;;
53833;SDS011;39735;51.432;5.482;2023-08-24T05:14:11;32.20;;;14.15;;
53833;SDS011;39735;51.432;5.482;2023-08-24T05:17:35;23.27;;;15.65;;
53833;SDS011;39735;51.432;5.482;2023-08-24T05:21:00;25.88;;;13.85;;
53833;SDS011;39735;51.432;5.482;2023-08-24T05:24:24;33.13;;;14.38;;
53833;SDS011;39735;51.432;5.482;2023-08-24T05:27:47;31.08;;;17.88;;
53833;SDS011;39735;51.432;5.482;2023-08-24T05:31:11;42.22;;;17.50;;
53833;SDS011;39735;51.432;5.482;2023-08-24T05:34:35;26.25;;;16.80;;
53833;SDS011;39735;51.432;5.482;2023-08-24T05:37:58;33.08;;;15.32;;
53833;SDS011;39735;51.432;5.482;2023-08-24T05:44:50;26.95;;;15.95;;
53833;SDS011;39735;51.432;5.482;2023-08-24T05:48:14;28.85;;;15.45;;
53833;SDS011;39735;51.432;5.482;2023-08-24T05:51:38;30.05;;;16.15;;
53833;SDS011;39735;51.432;5.482;2023-08-24T05:55:02;33.63;;;16.17;;
53833;SDS011;39735;51.432;5.482;2023-08-24T05:58:26;40.75;;;15.77;;
53833;SDS011;39735;51.432;5.482;2023-08-24T06:01:50;18.55;;;14.15;;
53833;SDS011;39735;51.432;5.482;2023-08-24T06:05:14;38.55;;;17.00;;
53833;SDS011;39735;51.432;5.482;2023-08-24T06:08:38;22.38;;;15.57;;
53833;SDS011;39735;51.432;5.482;2023-08-24T06:12:01;27.95;;;16.00;;
53833;SDS011;39735;51.432;5.482;2023-08-24T06:15:26;30.90;;;16.35;;
53833;SDS011;39735;51.432;5.482;2023-08-24T06:18:34;41.17;;;16.40;;
53833;SDS011;39735;51.432;5.482;2023-08-24T06:21:57;33.78;;;17.27;;
53833;SDS011;39735;51.432;5.482;2023-08-24T06:25:21;43.03;;;15.75;;
53833;SDS011;39735;51.432;5.482;2023-08-24T06:28:45;43.17;;;14.88;;
53833;SDS011;39735;51.432;5.482;2023-08-24T06:32:09;27.50;;;14.05;;
53833;SDS011;39735;51.432;5.482;2023-08-24T06:35:33;44.25;;;16.67;;
53833;SDS011;39735;51.432;5.482;2023-08-24T06:38:57;25.80;;;15.68;;
53833;SDS011;39735;51.432;5.482;2023-08-24T06:42:21;24.40;;;16.25;;
53833;SDS011;39735;51.432;5.482;2023-08-24T06:45:45;42.90;;;15.90;;
53833;SDS011;39735;51.432;5.482;2023-08-24T06:49:09;38.70;;;14.00;;
53833;SDS011;39735;51.432;5.482;2023-08-24T06:52:33;23.08;;;14.88;;
53833;SDS011;39735;51.432;5.482;2023-08-24T06:55:57;23.55;;;14.38;;
53833;SDS011;39735;51.432;5.482;2023-08-24T06:59:20;34.25;;;14.95;;
53833;SDS011;39735;51.432;5.482;2023-08-24T07:02:48;26.00;;;13.65;;
53833;SDS011;39735;51.432;5.482;2023-08-24T07:06:11;32.22;;;15.88;;
53833;SDS011;39735;51.432;5.482;2023-08-24T07:09:35;26.77;;;13.73;;
53833;SDS011;39735;51.432;5.482;2023-08-24T07:12:59;20.65;;;13.55;;
53833;SDS011;39735;51.432;5.482;2023-08-24T07:16:23;17.73;;;11.77;;
53833;SDS011;39735;51.432;5.482;2023-08-24T07:19:47;15.93;;;11.30;;
53833;SDS011;39735;51.432;5.482;2023-08-24T07:23:11;30.95;;;14.45;;
53833;SDS011;39735;51.432;5.482;2023-08-24T07:26:35;27.10;;;11.75;;
53833;SDS011;39735;51.432;5.482;2023-08-24T07:29:59;24.92;;;11.27;;
53833;SDS011;39735;51.432;5.482;2023-08-24T07:33:23;30.33;;;14.90;;
53833;SDS011;39735;51.432;5.482;2023-08-24T07:36:48;21.38;;;10.40;;
53833;SDS011;39735;51.432;5.482;2023-08-24T07:40:14;21.27;;;10.57;;
53833;SDS011;39735;51.432;5.482;2023-08-24T07:43:38;23.35;;;10.15;;
53833;SDS011;39735;51.432;5.482;2023-08-24T07:47:02;41.53;;;10.57;;
53833;SDS011;39735;51.432;5.482;2023-08-24T07:50:26;31.50;;;12.57;;
53833;SDS011;39735;51.432;5.482;2023-08-24T07:53:50;29.40;;;11.27;;
53833;SDS011;39735;51.432;5.482;2023-08-24T07:57:15;21.02;;;11.70;;
53833;SDS011;39735;51.432;5.482;2023-08-24T08:00:39;16.20;;;10.15;;
53833;SDS011;39735;51.432;5.482;2023-08-24T08:04:03;18.75;;;9.00;;
53833;SDS011;39735;51.432;5.482;2023-08-24T08:07:26;26.70;;;10.85;;
53833;SDS011;39735;51.432;5.482;2023-08-24T08:10:57;19.58;;;8.80;;
53833;SDS011;39735;51.432;5.482;2023-08-24T08:14:21;17.00;;;8.73;;
53833;SDS011;39735;51.432;5.482;2023-08-24T08:17:45;22.23;;;9.73;;
53833;SDS011;39735;51.432;5.482;2023-08-24T08:21:14;17.63;;;8.60;;
53833;SDS011;39735;51.432;5.482;2023-08-24T08:24:38;10.95;;;8.70;;
53833;SDS011;39735;51.432;5.482;2023-08-24T08:28:03;25.02;;;8.90;;
53833;SDS011;39735;51.432;5.482;2023-08-24T08:31:27;21.65;;;7.43;;
53833;SDS011;39735;51.432;5.482;2023-08-24T08:34:53;14.82;;;7.80;;
53833;SDS011;39735;51.432;5.482;2023-08-24T08:38:17;32.13;;;8.93;;
53833;SDS011;39735;51.432;5.482;2023-08-24T08:41:43;15.32;;;7.55;;
53833;SDS011;39735;51.432;5.482;2023-08-24T08:45:10;12.60;;;6.87;;
53833;SDS011;39735;51.432;5.482;2023-08-24T08:48:36;17.75;;;6.28;;
53833;SDS011;39735;51.432;5.482;2023-08-24T08:52:00;15.77;;;7.78;;
53833;SDS011;39735;51.432;5.482;2023-08-24T08:55:25;24.00;;;7.90;;
53833;SDS011;39735;51.432;5.482;2023-08-24T08:58:49;24.30;;;8.55;;
53833;SDS011;39735;51.432;5.482;2023-08-24T09:02:15;30.70;;;8.30;;
53833;SDS011;39735;51.432;5.482;2023-08-24T09:05:41;19.98;;;8.57;;
53833;SDS011;39735;51.432;5.482;2023-08-24T09:09:05;21.05;;;8.15;;
53833;SDS011;39735;51.432;5.482;2023-08-24T09:12:31;16.25;;;9.98;;
53833;SDS011;39735;51.432;5.482;2023-08-24T09:16:02;19.75;;;6.50;;
53833;SDS011;39735;51.432;5.482;2023-08-24T09:19:30;43.42;;;8.02;;
53833;SDS011;39735;51.432;5.482;2023-08-24T09:22:57;22.80;;;7.63;;
53833;SDS011;39735;51.432;5.482;2023-08-24T09:26:30;24.70;;;8.95;;
53833;SDS011;39735;51.432;5.482;2023-08-24T09:29:54;23.98;;;6.53;;
53833;SDS011;39735;51.432;5.482;2023-08-24T09:33:19;21.90;;;6.15;;
53833;SDS011;39735;51.432;5.482;2023-08-24T09:40:11;13.25;;;4.63;;
53833;SDS011;39735;51.432;5.482;2023-08-24T09:43:35;19.50;;;6.75;;
53833;SDS011;39735;51.432;5.482;2023-08-24T09:46:58;10.15;;;5.60;;
53833;SDS011;39735;51.432;5.482;2023-08-24T09:50:22;15.55;;;4.53;;
53833;SDS011;39735;51.432;5.482;2023-08-24T09:53:46;22.58;;;5.75;;
53833;SDS011;39735;51.432;5.482;2023-08-24T09:57:10;32.70;;;6.20;;
53833;SDS011;39735;51.432;5.482;2023-08-24T10:00:35;7.68;;;4.72;;
53833;SDS011;39735;51.432;5.482;2023-08-24T10:03:59;13.25;;;4.60;;
53833;SDS011;39735;51.432;5.482;2023-08-24T10:07:23;21.23;;;6.53;;
53833;SDS011;39735;51.432;5.482;2023-08-24T10:10:59;8.63;;;5.15;;
53833;SDS011;39735;51.432;5.482;2023-08-24T10:14:27;15.93;;;5.13;;
53833;SDS011;39735;51.432;5.482;2023-08-24T10:17:52;18.00;;;4.30;;
53833;SDS011;39735;51.432;5.482;2023-08-24T10:21:17;17.63;;;6.30;;
53833;SDS011;39735;51.432;5.482;2023-08-24T10:24:42;13.30;;;4.13;;
53833;SDS011;39735;51.432;5.482;2023-08-24T10:28:07;16.65;;;5.97;;
53833;SDS011;39735;51.432;5.482;2023-08-24T10:31:31;9.70;;;4.82;;
53833;SDS011;39735;51.432;5.482;2023-08-24T10:34:55;21.65;;;5.38;;
53833;SDS011;39735;51.432;5.482;2023-08-24T10:38:22;17.02;;;4.85;;
53833;SDS011;39735;51.432;5.482;2023-08-24T10:41:53;21.77;;;5.13;;
53833;SDS011;39735;51.432;5.482;2023-08-24T10:45:17;6.20;;;4.43;;
53833;SDS011;39735;51.432;5.482;2023-08-24T10:56:11;12.48;;;6.15;;
53833;SDS011;39735;51.432;5.482;2023-08-24T10:59:57;12.30;;;5.82;;
53833;SDS011;39735;51.432;5.482;2023-08-24T11:03:33;25.63;;;6.68;;
53833;SDS011;39735;51.432;5.482;2023-08-24T11:06:58;21.00;;;6.03;;
53833;SDS011;39735;51.432;5.482;2023-08-24T11:10:23;15.63;;;6.18;;
53833;SDS011;39735;51.432;5.482;2023-08-24T11:17:32;23.98;;;6.90;;
53833;SDS011;39735;51.432;5.482;2023-08-24T11:21:00;10.10;;;5.40;;
53833;SDS011;39735;51.432;5.482;2023-08-24T11:24:24;14.93;;;5.80;;
53833;SDS011;39735;51.432;5.482;2023-08-24T11:27:48;21.13;;;6.38;;
53833;SDS011;39735;51.432;5.482;2023-08-24T11:31:12;10.82;;;6.60;;
53833;SDS011;39735;51.432;5.482;2023-08-24T11:34:36;13.80;;;6.20;;
53833;SDS011;39735;51.432;5.482;2023-08-24T11:38:01;9.45;;;6.57;;
53833;SDS011;39735;51.432;5.482;2023-08-24T11:41:25;15.88;;;7.13;;
53833;SDS011;39735;51.432;5.482;2023-08-24T11:44:49;29.60;;;6.22;;
53833;SDS011;39735;51.432;5.482;2023-08-24T11:48:13;17.75;;;6.25;;
53833;SDS011;39735;51.432;5.482;2023-08-24T11:51:37;42.50;;;9.88;;
53833;SDS011;39735;51.432;5.482;2023-08-24T11:55:05;36.38;;;8.52;;
53833;SDS011;39735;51.432;5.482;2023-08-24T11:58:30;8.90;;;5.75;;
53833;SDS011;39735;51.432;5.482;2023-08-24T12:01:54;8.82;;;6.20;;
53833;SDS011;39735;51.432;5.482;2023-08-24T12:05:22;12.68;;;5.47;;
53833;SDS011;39735;51.432;5.482;2023-08-24T12:08:46;28.67;;;6.30;;
53833;SDS011;39735;51.432;5.482;2023-08-24T12:12:14;21.02;;;7.78;;
53833;SDS011;39735;51.432;5.482;2023-08-24T12:15:38;9.55;;;5.80;;
53833;SDS011;39735;51.432;5.482;2023-08-24T12:19:06;13.38;;;4.90;;
53833;SDS011;39735;51.432;5.482;2023-08-24T12:22:31;9.80;;;4.90;;
53833;SDS011;39735;51.432;5.482;2023-08-24T12:25:55;17.55;;;5.18;;
53833;SDS011;39735;51.432;5.482;2023-08-24T12:29:26;7.05;;;4.45;;
53833;SDS011;39735;51.432;5.482;2023-08-24T12:32:50;18.95;;;4.43;;
53833;SDS011;39735;51.432;5.482;2023-08-24T12:36:26;15.43;;;5.57;;
53833;SDS011;39735;51.432;5.482;2023-08-24T12:39:50;12.75;;;4.72;;
53833;SDS011;39735;51.432;5.482;2023-08-24T12:43:15;9.75;;;4.90;;
53833;SDS011;39735;51.432;5.482;2023-08-24T12:46:39;8.43;;;5.00;;
53833;SDS011;39735;51.432;5.482;2023-08-24T12:50:04;33.63;;;5.57;;
53833;SDS011;39735;51.432;5.482;2023-08-24T12:53:28;6.63;;;4.13;;
53833;SDS011;39735;51.432;5.482;2023-08-24T12:56:52;8.05;;;4.70;;
53833;SDS011;39735;51.432;5.482;2023-08-24T13:00:16;7.03;;;4.60;;
53833;SDS011;39735;51.432;5.482;2023-08-24T13:03:40;4.38;;;2.92;;
53833;SDS011;39735;51.432;5.482;2023-08-24T13:07:03;3.55;;;3.25;;
53833;SDS011;39735;51.432;5.482;2023-08-24T13:10:27;9.93;;;4.57;;
53833;SDS011;39735;51.432;5.482;2023-08-24T13:13:51;13.32;;;3.40;;
53833;SDS011;39735;51.432;5.482;2023-08-24T13:17:15;16.15;;;4.80;;
53833;SDS011;39735;51.432;5.482;2023-08-24T13:20:39;14.13;;;4.25;;
53833;SDS011;39735;51.432;5.482;2023-08-24T13:24:03;33.55;;;4.47;;
53833;SDS011;39735;51.432;5.482;2023-08-24T13:27:27;8.15;;;4.22;;
53833;SDS011;39735;51.432;5.482;2023-08-24T13:30:51;11.95;;;4.22;;
53833;SDS011;39735;51.432;5.482;2023-08-24T13:34:16;18.67;;;5.00;;
53833;SDS011;39735;51.432;5.482;2023-08-24T13:37:39;7.80;;;4.05;;
53833;SDS011;39735;51.432;5.482;2023-08-24T13:41:03;8.98;;;3.28;;
53833;SDS011;39735;51.432;5.482;2023-08-24T13:44:28;22.10;;;4.05;;
53833;SDS011;39735;51.432;5.482;2023-08-24T13:47:55;8.27;;;4.18;;
53833;SDS011;39735;51.432;5.482;2023-08-24T13:51:19;14.13;;;3.28;;
53833;SDS011;39735;51.432;5.482;2023-08-24T13:54:44;21.53;;;4.90;;
53833;SDS011;39735;51.432;5.482;2023-08-24T13:58:08;122.55;;;7.65;;
53833;SDS011;39735;51.432;5.482;2023-08-24T14:01:32;70.20;;;6.05;;
53833;SDS011;39735;51.432;5.482;2023-08-24T14:04:55;5.00;;;3.00;;
53833;SDS011;39735;51.432;5.482;2023-08-24T14:08:22;25.08;;;3.92;;
53833;SDS011;39735;51.432;5.482;2023-08-24T14:11:46;8.02;;;3.55;;
53833;SDS011;39735;51.432;5.482;2023-08-24T14:15:11;6.55;;;3.10;;
53833;SDS011;39735;51.432;5.482;2023-08-24T14:18:34;31.77;;;3.78;;
53833;SDS011;39735;51.432;5.482;2023-08-24T14:21:58;24.05;;;3.25;;
53833;SDS011;39735;51.432;5.482;2023-08-24T14:25:22;5.82;;;3.47;;
53833;SDS011;39735;51.432;5.482;2023-08-24T14:28:53;11.68;;;3.67;;
53833;SDS011;39735;51.432;5.482;2023-08-24T14:32:17;19.73;;;3.50;;
53833;SDS011;39735;51.432;5.482;2023-08-24T14:35:41;6.68;;;3.45;;
53833;SDS011;39735;51.432;5.482;2023-08-24T14:39:12;10.85;;;3.08;;
53833;SDS011;39735;51.432;5.482;2023-08-24T14:42:36;13.15;;;3.47;;
53833;SDS011;39735;51.432;5.482;2023-08-24T14:46:00;8.02;;;3.05;;
53833;SDS011;39735;51.432;5.482;2023-08-24T14:49:24;7.25;;;4.32;;
53833;SDS011;39735;51.432;5.482;2023-08-24T14:52:48;6.30;;;2.65;;
53833;SDS011;39735;51.432;5.482;2023-08-24T14:56:12;4.93;;;2.85;;
53833;SDS011;39735;51.432;5.482;2023-08-24T14:59:35;9.27;;;2.88;;
53833;SDS011;39735;51.432;5.482;2023-08-24T15:03:00;6.30;;;3.28;;
53833;SDS011;39735;51.432;5.482;2023-08-24T15:06:24;3.05;;;2.80;;
53833;SDS011;39735;51.432;5.482;2023-08-24T15:09:47;13.18;;;2.72;;
53833;SDS011;39735;51.432;5.482;2023-08-24T15:13:12;9.93;;;2.63;;
53833;SDS011;39735;51.432;5.482;2023-08-24T15:16:36;4.93;;;1.85;;
53833;SDS011;39735;51.432;5.482;2023-08-24T15:20:01;10.37;;;2.37;;
53833;SDS011;39735;51.432;5.482;2023-08-24T15:23:28;6.38;;;2.20;;
53833;SDS011;39735;51.432;5.482;2023-08-24T15:26:53;10.18;;;2.80;;
53833;SDS011;39735;51.432;5.482;2023-08-24T15:30:17;4.00;;;1.63;;
53833;SDS011;39735;51.432;5.482;2023-08-24T15:33:40;12.98;;;3.30;;
53833;SDS011;39735;51.432;5.482;2023-08-24T15:37:05;5.70;;;3.25;;
53833;SDS011;39735;51.432;5.482;2023-08-24T15:40:29;2.75;;;1.95;;
53833;SDS011;39735;51.432;5.482;2023-08-24T15:43:53;5.43;;;1.80;;
53833;SDS011;39735;51.432;5.482;2023-08-24T15:47:17;4.10;;;2.10;;
53833;SDS011;39735;51.432;5.482;2023-08-24T15:50:41;8.65;;;2.35;;
53833;SDS011;39735;51.432;5.482;2023-08-24T15:54:05;3.92;;;1.98;;
53833;SDS011;39735;51.432;5.482;2023-08-24T15:57:29;15.55;;;2.00;;
53833;SDS011;39735;51.432;5.482;2023-08-24T16:00:52;6.80;;;2.17;;
53833;SDS011;39735;51.432;5.482;2023-08-24T16:04:16;3.20;;;1.70;;
53833;SDS011;39735;51.432;5.482;2023-08-24T16:07:40;6.35;;;2.08;;
53833;SDS011;39735;51.432;5.482;2023-08-24T16:11:04;4.35;;;1.65;;
53833;SDS011;39735;51.432;5.482;2023-08-24T16:14:28;2.65;;;1.10;;
53833;SDS011;39735;51.432;5.482;2023-08-24T16:17:52;4.40;;;1.45;;
53833;SDS011;39735;51.432;5.482;2023-08-24T16:21:16;5.03;;;1.45;;
53833;SDS011;39735;51.432;5.482;2023-08-24T16:24:40;2.45;;;1.33;;
53833;SDS011;39735;51.432;5.482;2023-08-24T16:28:04;2.30;;;1.40;;
53833;SDS011;39735;51.432;5.482;2023-08-24T16:31:28;2.95;;;1.30;;
53833;SDS011;39735;51.432;5.482;2023-08-24T16:34:52;2.25;;;1.55;;
53833;SDS011;39735;51.432;5.482;2023-08-24T16:38:16;1.27;;;1.25;;
53833;SDS011;39735;51.432;5.482;2023-08-24T16:41:39;3.17;;;0.98;;
53833;SDS011;39735;51.432;5.482;2023-08-24T16:45:04;1.67;;;1.17;;
53833;SDS011;39735;51.432;5.482;2023-08-24T16:48:28;8.80;;;1.30;;
53833;SDS011;39735;51.432;5.482;2023-08-24T16:51:52;10.48;;;1.77;;
53833;SDS011;39735;51.432;5.482;2023-08-24T16:55:16;1.50;;;1.40;;
53833;SDS011;39735;51.432;5.482;2023-08-24T16:58:40;2.90;;;1.30;;
53833;SDS011;39735;51.432;5.482;2023-08-24T17:02:04;4.45;;;1.70;;
53833;SDS011;39735;51.432;5.482;2023-08-24T17:05:28;1.67;;;0.88;;
53833;SDS011;39735;51.432;5.482;2023-08-24T17:08:51;1.13;;;0.82;;
53833;SDS011;39735;51.432;5.482;2023-08-24T17:12:15;10.70;;;1.92;;
53833;SDS011;39735;51.432;5.482;2023-08-24T17:15:39;9.00;;;1.45;;
53833;SDS011;39735;51.432;5.482;2023-08-24T17:19:04;12.60;;;1.42;;
53833;SDS011;39735;51.432;5.482;2023-08-24T17:22:29;1.42;;;1.05;;
53833;SDS011;39735;51.432;5.482;2023-08-24T17:25:53;1.35;;;0.65;;
53833;SDS011;39735;51.432;5.482;2023-08-24T17:29:18;10.57;;;1.57;;
53833;SDS011;39735;51.432;5.482;2023-08-24T17:32:42;10.25;;;1.90;;
53833;SDS011;39735;51.432;5.482;2023-08-24T17:36:06;4.07;;;1.20;;
53833;SDS011;39735;51.432;5.482;2023-08-24T17:39:30;1.88;;;1.23;;
53833;SDS011;39735;51.432;5.482;2023-08-24T17:42:53;4.28;;;1.02;;
53833;SDS011;39735;51.432;5.482;2023-08-24T17:46:18;4.35;;;1.85;;
53833;SDS011;39735;51.432;5.482;2023-08-24T17:49:42;7.28;;;1.27;;
53833;SDS011;39735;51.432;5.482;2023-08-24T17:53:05;7.20;;;1.95;;
53833;SDS011;39735;51.432;5.482;2023-08-24T17:56:29;4.80;;;0.82;;
53833;SDS011;39735;51.432;5.482;2023-08-24T17:59:53;7.53;;;2.60;;
53833;SDS011;39735;51.432;5.482;2023-08-24T18:03:18;13.90;;;4.60;;
53833;SDS011;39735;51.432;5.482;2023-08-24T18:06:42;1.30;;;1.20;;
53833;SDS011;39735;51.432;5.482;2023-08-24T18:10:06;6.97;;;1.88;;
53833;SDS011;39735;51.432;5.482;2023-08-24T18:13:31;4.83;;;1.30;;
53833;SDS011;39735;51.432;5.482;2023-08-24T18:16:55;1.42;;;1.33;;
53833;SDS011;39735;51.432;5.482;2023-08-24T18:20:20;4.03;;;1.83;;
53833;SDS011;39735;51.432;5.482;2023-08-24T18:23:44;5.93;;;1.15;;
53833;SDS011;39735;51.432;5.482;2023-08-24T18:27:08;2.63;;;1.73;;
53833;SDS011;39735;51.432;5.482;2023-08-24T18:30:32;5.10;;;0.90;;
53833;SDS011;39735;51.432;5.482;2023-08-24T18:33:56;1.85;;;1.70;;
53833;SDS011;39735;51.432;5.482;2023-08-24T18:37:22;1.02;;;1.02;;
53833;SDS011;39735;51.432;5.482;2023-08-24T18:40:50;3.13;;;1.77;;
53833;SDS011;39735;51.432;5.482;2023-08-24T18:44:16;1.45;;;1.35;;
53833;SDS011;39735;51.432;5.482;2023-08-24T18:47:40;2.90;;;1.63;;
53833;SDS011;39735;51.432;5.482;2023-08-24T18:51:04;6.68;;;2.03;;
53833;SDS011;39735;51.432;5.482;2023-08-24T18:54:28;2.13;;;1.85;;
53833;SDS011;39735;51.432;5.482;2023-08-24T18:57:52;5.57;;;1.75;;
53833;SDS011;39735;51.432;5.482;2023-08-24T19:01:15;14.07;;;1.42;;
53833;SDS011;39735;51.432;5.482;2023-08-24T19:04:43;2.80;;;1.50;;
53833;SDS011;39735;51.432;5.482;2023-08-24T19:08:07;7.22;;;1.83;;
53833;SDS011;39735;51.432;5.482;2023-08-24T19:11:31;4.60;;;1.77;;
53833;SDS011;39735;51.432;5.482;2023-08-24T19:14:55;14.63;;;2.17;;
53833;SDS011;39735;51.432;5.482;2023-08-24T19:18:23;2.53;;;1.50;;
53833;SDS011;39735;51.432;5.482;2023-08-24T19:21:47;2.00;;;1.90;;
53833;SDS011;39735;51.432;5.482;2023-08-24T19:25:11;11.55;;;1.38;;
53833;SDS011;39735;51.432;5.482;2023-08-24T19:28:35;6.68;;;1.73;;
53833;SDS011;39735;51.432;5.482;2023-08-24T19:31:59;5.88;;;1.80;;
53833;SDS011;39735;51.432;5.482;2023-08-24T19:35:23;12.43;;;2.08;;
53833;SDS011;39735;51.432;5.482;2023-08-24T19:38:46;5.97;;;2.10;;
53833;SDS011;39735;51.432;5.482;2023-08-24T19:42:10;5.97;;;2.03;;
53833;SDS011;39735;51.432;5.482;2023-08-24T19:45:37;5.72;;;2.03;;
53833;SDS011;39735;51.432;5.482;2023-08-24T19:49:01;11.48;;;2.38;;
53833;SDS011;39735;51.432;5.482;2023-08-24T19:52:25;5.57;;;1.88;;
53833;SDS011;39735;51.432;5.482;2023-08-24T19:55:49;2.67;;;1.98;;
53833;SDS011;39735;51.432;5.482;2023-08-24T19:59:14;9.02;;;1.77;;
53833;SDS011;39735;51.432;5.482;2023-08-24T20:02:38;2.10;;;2.05;;
53833;SDS011;39735;51.432;5.482;2023-08-24T20:06:01;17.55;;;3.28;;
53833;SDS011;39735;51.432;5.482;2023-08-24T20:12:51;4.15;;;2.30;;
53833;SDS011;39735;51.432;5.482;2023-08-24T20:16:15;16.93;;;3.13;;
53833;SDS011;39735;51.432;5.482;2023-08-24T20:19:42;4.90;;;2.88;;
53833;SDS011;39735;51.432;5.482;2023-08-24T20:23:06;8.20;;;1.85;;
53833;SDS011;39735;51.432;5.482;2023-08-24T20:26:30;3.08;;;1.98;;
53833;SDS011;39735;51.432;5.482;2023-08-24T20:29:54;15.60;;;2.70;;
53833;SDS011;39735;51.432;5.482;2023-08-24T20:33:18;6.22;;;1.95;;
53833;SDS011;39735;51.432;5.482;2023-08-24T20:36:42;24.15;;;2.40;;
53833;SDS011;39735;51.432;5.482;2023-08-24T20:40:06;6.10;;;2.60;;
53833;SDS011;39735;51.432;5.482;2023-08-24T20:43:30;18.20;;;2.25;;